Latest Weather Observations for Richmond

IDQ60801

Issued at 5:32 pm EST Friday 28 August 2015 (issued every 30 minutes, with the page automatically refreshed every 10 minutes)

About weather observations | Map of weather stations | Latest weather observations for QLD | Other Formats
Station Details ID: 030161 Name: RICHMOND AIRPORT Lat: -20.70 Lon: 143.12 Height: 206.3 m
Data from the previous 72 hours. | See also: Recent months at Richmond
Date/Time
EST
Temp
°C
App
Temp
°C
Dew
Point
Rel
Hum
%
Delta-T
°C
Wind Press
QNH
hPa
Press
MSL
hPa
Rain
since 9 am
mm
Dir
 
Spd
km/h
Gust
km/h
Spd
kts
Gust
kts
28/05:00pm 30.1 25.8 7.9 25 12.2 S 20 32 11 17 1015.0 1014.4 0.0
28/04:30pm 30.3 27.3 7.5 24 12.5 S 13 26 7 14 1014.9 1014.3 0.0
28/04:00pm 30.4 26.4 8.2 25 12.3 S 19 30 10 16 1015.0 1014.4 0.0
28/03:30pm 30.8 26.9 8.5 25 12.5 S 19 30 10 16 1015.0 1014.4 0.0
28/03:00pm 30.3 27.3 9.2 27 11.9 SE 15 24 8 13 1015.3 1014.7 0.0
28/02:30pm 31.4 28.4 10.7 28 12.0 ESE 17 26 9 14 1015.8 1015.2 0.0
28/02:00pm 30.4 28.3 9.8 28 11.7 SE 11 22 6 12 1016.3 1015.7 0.0
28/01:30pm 29.5 28.0 10.6 31 10.9 SSE 9 26 5 14 1016.9 1016.3 0.0
28/01:00pm 29.0 28.2 12.8 36 9.6 SSE 9 17 5 9 1017.4 1016.8 0.0
28/12:30pm 27.8 27.1 13.3 40 8.6 E 9 19 5 10 1018.0 1017.5 0.0
28/12:00pm 27.8 27.3 14.8 45 7.9 SE 11 20 6 11 1018.5 1018.0 0.0
28/11:30am 26.4 26.1 14.5 48 7.2 E 9 15 5 8 1019.2 1018.7 0.0
28/11:00am 25.1 24.1 14.6 52 6.3 ESE 13 19 7 10 1019.7 1019.1 0.0
28/10:30am 24.4 24.0 15.3 57 5.5 SE 11 19 6 10 1020.2 1019.6 0.0
28/10:00am 23.5 22.0 15.3 60 4.9 ESE 17 24 9 13 1020.2 1019.6 0.0
28/09:30am 22.3 20.4 15.2 64 4.3 E 19 26 10 14 1020.3 1019.7 0.0
28/09:00am 20.6 18.2 14.5 68 3.6 ESE 20 26 11 14 1020.5 1019.9 0.0
28/08:30am 19.5 16.0 14.5 73 2.9 E 26 37 14 20 1019.9 1019.3 0.0
28/08:00am 18.3 15.8 14.2 77 2.4 ESE 20 26 11 14 1020.1 1019.5 0.0
28/07:30am 17.0 15.4 13.9 82 1.8 SE 15 19 8 10 1020.1 1019.5 0.0
28/07:00am 16.1 14.8 13.6 85 1.4 SE 13 15 7 8 1020.1 1019.5 0.0
28/06:30am 16.1 14.6 13.2 83 1.6 SE 13 17 7 9 1020.0 1019.4 0.0
28/06:00am 16.7 14.7 13.8 83 1.7 SE 17 22 9 12 1019.4 1018.9 0.0
28/05:30am 17.0 14.4 13.9 82 1.8 SE 20 24 11 13 1019.2 1018.7 0.0
28/05:00am 17.2 14.3 13.9 81 1.9 SE 22 28 12 15 1018.9 1018.4 0.0
28/04:30am 17.4 14.5 14.1 81 1.9 SE 22 32 12 17 1018.7 1018.2 0.0
28/04:00am 17.4 14.5 14.1 81 1.9 SE 22 26 12 14 1018.6 1018.1 0.0
28/03:30am 17.6 15.0 13.9 79 2.1 SE 20 28 11 15 1018.9 1018.4 0.0
28/03:00am 17.9 15.0 14.0 78 2.2 SE 22 28 12 15 1018.9 1018.4 0.0
28/02:30am 18.2 15.3 13.9 76 2.5 SE 22 28 12 15 1019.1 1018.6 0.0
28/02:00am 18.4 15.4 13.7 74 2.7 SSE 22 28 12 15 1019.4 1018.9 0.0
28/01:30am 18.9 16.2 13.5 71 3.1 SSE 20 26 11 14 1019.7 1019.1 0.0
28/01:00am 19.3 15.9 13.7 70 3.2 SSE 24 30 13 16 1019.8 1019.2 0.0
28/12:30am 19.7 17.0 13.6 68 3.5 SSE 20 26 11 14 1020.0 1019.4 0.0
28/12:00am 20.0 16.9 13.5 66 3.7 SSE 22 28 12 15 1020.0 1019.4 0.0
 
Date/Time
EST
Temp
°C
App
Temp
°C
Dew
Point
Rel
Hum
%
Delta-T
°C
Wind Press
QNH
hPa
Press
MSL
hPa
Rain
since 9 am
mm
Dir
 
Spd
km/h
Gust
km/h
Spd
kts
Gust
kts
27/11:30pm 20.5 16.7 13.5 64 4.1 SSE 26 32 14 17 1019.8 1019.2 0.0
27/11:00pm 21.1 17.0 13.8 63 4.2 SSE 28 35 15 19 1019.8 1019.2 0.0
27/10:30pm 21.9 17.1 14.0 61 4.6 SE 32 39 17 21 1019.8 1019.2 0.0
27/10:00pm 22.6 18.2 14.2 59 5.0 SSE 30 35 16 19 1019.9 1019.3 0.0
27/09:30pm 23.2 19.6 14.2 57 5.3 SSE 26 33 14 18 1019.9 1019.3 0.0
27/09:00pm 23.4 19.8 14.1 56 5.5 SSE 26 32 14 17 1019.6 1019.0 0.0
27/08:30pm 23.8 19.7 13.9 54 5.9 SSE 28 33 15 18 1019.3 1018.8 0.0
27/08:00pm 24.1 19.4 13.3 51 6.3 S 30 35 16 19 1018.9 1018.4 0.0
27/07:30pm 24.5 19.8 13.1 49 6.7 S 30 35 16 19 1018.6 1018.1 0.0
27/07:00pm 25.6 20.9 12.1 43 7.8 SSE 28 33 15 18 1018.2 1017.7 0.0
27/06:30pm 25.9 22.0 12.0 42 8.0 SSE 24 32 13 17 1017.6 1017.0 0.0
27/06:00pm 26.4 21.6 11.7 40 8.5 SSE 28 32 15 17 1017.2 1016.6 0.0
27/05:30pm 26.9 22.5 11.8 39 8.7 SSE 26 32 14 17 1017.0 1016.4 0.0
27/05:00pm 28.0 24.4 12.0 37 9.3 SSE 22 32 12 17 1017.0 1016.4 0.0
27/04:30pm 27.6 23.5 11.6 37 9.3 SSE 24 35 13 19 1016.7 1016.1 0.0
27/04:00pm 28.1 24.5 12.0 36 9.4 S 22 33 12 18 1016.7 1016.1 0.0
27/03:30pm 28.0 23.7 12.0 37 9.3 SSE 26 33 14 18 1016.8 1016.2 0.0
27/03:00pm 28.0 24.4 12.0 37 9.3 S 22 32 12 17 1017.2 1016.6 0.0
27/02:30pm 28.2 22.7 12.5 37 9.2 S 33 44 18 24 1017.3 1016.7 0.0
27/02:03pm 28.8 23.9 11.4 34 10.1 S 28 48 15 26 1017.3 1016.7 0.0
27/02:00pm 30.5 26.5 11.9 31 10.9 S 24 43 13 23 1017.4 1016.8 0.0
27/01:30pm 29.6 25.0 11.2 32 10.7 S 26 33 14 18 1017.7 1017.1 0.0
27/01:00pm 28.2 23.7 11.3 35 9.7 S 26 37 14 20 1017.9 1017.3 0.0
27/12:30pm 29.6 27.4 12.1 34 10.3 S 15 35 8 19 1018.4 1017.9 0.0
27/12:00pm 27.8 24.9 10.9 35 9.7 S 17 30 9 16 1018.9 1018.4 0.0
27/11:30am 26.3 23.3 12.0 41 8.3 S 19 28 10 15 1019.7 1019.1 0.0
27/11:00am 26.3 24.2 12.4 42 8.1 S 15 20 8 11 1020.0 1019.4 0.0
27/10:30am 25.5 24.8 12.0 43 7.8 SE 7 15 4 8 1019.8 1019.2 0.0
27/10:00am 24.3 22.0 11.6 45 7.2 ESE 15 22 8 12 1019.7 1019.1 0.0
27/09:30am 23.4 20.6 11.5 47 6.7 E 17 24 9 13 1019.8 1019.2 0.0
27/09:00am 22.5 18.9 11.9 51 6.0 ESE 22 30 12 16 1019.6 1019.0 0.0
27/08:30am 20.9 16.8 11.3 54 5.4 ESE 24 32 13 17 1019.6 1019.0 0.0
27/08:00am 20.6 16.0 11.2 55 5.2 SE 26 33 14 18 1019.1 1018.6 0.0
27/07:30am 19.4 15.1 10.9 58 4.7 SE 24 33 13 18 1018.9 1018.4 0.0
27/07:00am 19.0 15.1 10.8 59 4.5 SE 22 28 12 15 1018.9 1018.4 0.0
27/06:30am 19.1 14.4 10.6 58 4.6 SE 26 37 14 20 1018.4 1017.9 0.0
27/06:00am 19.2 13.7 10.7 58 4.6 SSE 30 37 16 20 1017.9 1017.3 0.0
27/05:30am 19.2 14.1 10.7 58 4.6 SSE 28 35 15 19 1017.7 1017.1 0.0
27/05:00am 19.3 14.6 10.6 57 4.7 SSE 26 33 14 18 1017.4 1016.8 0.0
27/04:30am 19.9 15.3 11.1 57 4.9 SSE 26 32 14 17 1017.1 1016.5 0.0
27/04:00am 20.2 15.4 11.7 58 4.8 SSE 28 35 15 19 1016.7 1016.1 0.0
27/03:30am 20.7 15.6 11.9 57 5.0 SE 30 39 16 21 1016.1 1015.5 0.0
27/03:00am 21.2 16.2 12.1 56 5.1 SSE 30 39 16 21 1016.5 1015.9 0.0
27/02:30am 21.4 16.6 11.7 54 5.5 SSE 28 35 15 19 1016.7 1016.1 0.0
27/02:00am 21.7 16.5 11.7 53 5.6 SE 30 41 16 22 1016.4 1015.8 0.0
27/01:30am 22.1 15.9 11.5 51 6.0 SSE 35 46 19 25 1016.8 1016.2 0.0
27/01:00am 22.6 16.4 11.4 49 6.3 SSE 35 44 19 24 1017.1 1016.5 0.0
27/12:30am 23.2 16.9 10.9 46 6.9 SSE 35 48 19 26 1017.1 1016.5 0.0
27/12:00am 24.1 16.9 9.3 39 8.1 SSE 37 52 20 28 1017.1 1016.5 0.0
 
Date/Time
EST
Temp
°C
App
Temp
°C
Dew
Point
Rel
Hum
%
Delta-T
°C
Wind Press
QNH
hPa
Press
MSL
hPa
Rain
since 9 am
mm
Dir
 
Spd
km/h
Gust
km/h
Spd
kts
Gust
kts
26/11:30pm 25.0 18.4 8.5 35 8.9 SSE 33 43 18 23 1016.9 1016.3 0.0
26/11:00pm 25.6 19.2 8.6 34 9.3 SSE 32 37 17 20 1016.8 1016.2 0.0
26/10:30pm 26.1 19.3 7.7 31 9.9 SSE 33 43 18 23 1016.6 1016.0 0.0
26/10:10pm 26.0 23.1 8.0 32 9.7 S 13 43 7 23 1016.3 1015.7 0.0
26/10:00pm 25.1 23.2 6.8 31 9.6 S 6 7 3 4 1016.0 1015.4 0.0
26/09:30pm 25.7 22.9 6.8 30 10.0 SSW 11 13 6 7 1015.8 1015.2 0.0
26/09:00pm 25.8 23.4 6.9 30 10.0 S 9 15 5 8 1015.7 1015.1 0.0
26/08:30pm 27.0 24.7 7.5 29 10.5 SW 9 11 5 6 1015.6 1015.0 0.0
26/08:00pm 27.6 25.7 7.5 28 10.9 SSW 7 9 4 5 1015.5 1014.9 0.0
26/07:30pm 28.6 26.0 7.8 27 11.4 WSW 11 13 6 7 1015.2 1014.6 0.0
26/07:00pm 29.7 27.2 8.2 26 11.9 W 11 11 6 6 1014.8 1014.2 0.0
26/06:30pm 31.1 28.6 8.2 24 12.8 W 11 13 6 7 1014.5 1013.9 0.0
26/06:00pm 32.6 30.8 9.4 24 13.3 W 9 13 5 7 1014.1 1013.6 0.0
26/05:30pm 33.2 31.0 9.3 23 13.7 SSW 11 17 6 9 1013.8 1013.3 0.0
26/05:00pm 34.5 33.0 10.4 23 14.1 WSW 9 15 5 8 1013.6 1013.0 0.0
26/04:30pm 34.2 31.8 10.1 23 14.0 NW 13 19 7 10 1013.6 1013.0 0.0
26/04:00pm 34.6 32.1 9.8 22 14.4 NW 13 20 7 11 1013.5 1012.9 0.0
26/03:30pm 33.9 31.8 9.9 23 13.9 W 11 17 6 9 1013.6 1013.0 0.0
26/03:00pm 34.5 31.4 10.4 23 14.1 SW 17 26 9 14 1013.7 1013.1 0.0
26/02:30pm 33.9 32.6 9.9 23 13.9 WNW 7 15 4 8 1014.2 1013.7 0.0
26/02:00pm 33.6 30.9 9.0 22 14.0 WNW 13 19 7 10 1014.5 1013.9 0.0
26/01:30pm 34.3 32.7 8.8 21 14.6 NNW 7 28 4 15 1015.1 1014.5 0.0
26/01:00pm 33.2 30.1 7.2 20 14.4 N 13 26 7 14 1015.7 1015.1 0.0
26/12:30pm 32.8 30.5 7.6 21 14.0 NNW 9 19 5 10 1016.2 1015.6 0.0
26/12:00pm 32.3 28.6 7.9 22 13.6 NW 17 28 9 15 1016.9 1016.3 0.0
26/11:30am 31.6 28.1 7.3 22 13.4 NW 15 24 8 13 1017.6 1017.0 0.0
26/11:00am 30.7 28.8 9.0 26 12.2 NW 9 15 5 8 1018.2 1017.7 0.0
26/10:30am 28.7 25.7 9.4 30 10.8 NNE 15 24 8 13 1018.5 1018.0 0.0
26/10:00am 27.7 26.4 10.0 33 10.0 E 7 11 4 6 1018.7 1018.2 0.0
26/09:30am 26.1 24.2 9.0 34 9.4 ENE 9 15 5 8 1019.1 1018.6 0.0
26/09:00am 24.6 21.9 7.3 33 9.1 ENE 11 17 6 9 1019.0 1018.5 0.0
26/08:30am 22.6 17.9 5.1 32 8.8 ESE 19 24 10 13 1018.9 1018.4 0.0
26/08:00am 21.7 16.8 4.3 32 8.5 ESE 19 24 10 13 1019.1 1018.6 0.0
26/07:30am 20.7 17.0 4.3 34 8.0 SE 13 17 7 9 1018.6 1018.1 0.0
26/07:00am 20.2 16.2 4.7 36 7.6 ESE 15 17 8 9 1018.1 1017.6 0.0
26/06:30am 19.9 16.2 4.4 36 7.5 ESE 13 17 7 9 1017.9 1017.3 0.0
26/06:00am 20.4 15.9 4.4 35 7.8 ESE 17 22 9 12 1017.5 1016.9 0.0
26/05:30am 20.8 15.8 4.4 34 8.0 ESE 20 28 11 15 1016.9 1016.3 0.0
26/05:00am 21.2 15.5 4.7 34 8.1 ESE 24 33 13 18 1016.8 1016.2 0.0
26/04:30am 21.5 15.1 5.0 34 8.2 ESE 28 35 15 19 1016.7 1016.1 0.0
26/04:00am 21.8 15.4 5.3 34 8.3 ESE 28 37 15 20 1016.5 1015.9 0.0
26/03:30am 21.7 15.7 5.2 34 8.3 ESE 26 35 14 19 1016.6 1016.0 0.0
26/03:00am 21.5 15.9 5.4 35 8.1 SE 24 30 13 16 1016.9 1016.3 0.0
26/02:30am 21.8 15.9 5.7 35 8.1 SE 26 35 14 19 1017.2 1016.6 0.0
26/02:00am 22.2 15.5 5.6 34 8.4 SE 30 37 16 20 1017.3 1016.7 0.0
26/01:30am 22.3 15.7 6.1 35 8.3 SE 30 37 16 20 1017.4 1016.8 0.0
26/01:00am 22.4 16.3 6.6 36 8.1 SE 28 37 15 20 1017.7 1017.1 0.0
26/12:30am 22.5 17.4 7.5 38 7.9 SE 24 35 13 19 1018.1 1017.6 0.0
26/12:00am 23.0 16.7 7.5 37 8.1 SE 30 35 16 19 1018.0 1017.5 0.0
 
Date/Time
EST
Temp
°C
App
Temp
°C
Dew
Point
Rel
Hum
%
Delta-T
°C
Wind Press
QNH
hPa
Press
MSL
hPa
Rain
since 9 am
mm
Dir
 
Spd
km/h
Gust
km/h
Spd
kts
Gust
kts
25/11:30pm 23.5 18.2 6.7 34 8.7 SE 24 35 13 19 1018.2 1017.7 0.0
25/11:00pm 23.5 17.6 4.0 28 9.6 SSE 24 33 13 18 1017.9 1017.3 0.0
25/10:30pm 24.4 17.7 3.7 26 10.3 SSE 28 35 15 19 1017.7 1017.1 0.0
25/10:00pm 25.0 19.4 3.6 25 10.6 SSE 22 26 12 14 1017.5 1016.9 0.0
25/09:30pm 25.8 19.9 3.7 24 11.1 SSE 24 30 13 16 1017.2 1016.6 0.0
25/09:00pm 26.5 20.2 3.7 23 11.4 SSE 26 32 14 17 1016.9 1016.3 0.0
25/08:30pm 27.6 21.3 4.0 22 12.0 SSE 26 33 14 18 1016.6 1016.0 0.0
25/08:00pm 28.0 22.4 3.7 21 12.3 S 22 28 12 15 1016.3 1015.7 0.0
25/07:30pm 29.4 22.8 4.1 20 13.0 S 28 35 15 19 1015.7 1015.1 0.0
25/07:28pm 29.6 23.0 4.3 20 13.1 S 28 35 15 19 1015.7 1015.1 0.0
25/07:00pm 28.6 24.7 5.5 23 12.1 SSW 15 17 8 9 1015.2 1014.6 0.0
25/06:30pm 30.5 27.2 6.4 22 13.0 S 13 13 7 7 1014.8 1014.2 0.0
25/06:00pm 32.5 29.6 8.0 22 13.7 S 13 20 7 11 1014.7 1014.1 0.0

Other Formats:

Comma delimited format used in spreadsheet applications
http://www.bom.gov.au/fwo/IDQ60801/IDQ60801.94341.axf

JavaScript Object Notation format (JSON) in row-major order
http://www.bom.gov.au/fwo/IDQ60801/IDQ60801.94341.json